Time;durP1;ratioP1;P1;durP2;ratioP2;P2;SDS_P1;SDS_P2;PMS_P1;PMS_P2;Temp;Humidity;BMP_temperature;BMP_pressure;BME280_temperature;BME280_humidity;BME280_pressure;Samples;Min_cycle;Max_cycle;Signal;HPM_P1;HPM_P2
2022/06/06 00:02:23;;;;;;;;;;;;;;;20.34;72.95;95166.38;5116875;27;1922;-50
2022/06/06 00:04:49;;;;;;;;;;;;;;;20.13;73.45;95174.88;5116828;28;996;-50
2022/06/06 00:07:15;;;;;;;;;;;;;;;20.27;71.61;95150.13;5097584;27;1176;-50
2022/06/06 00:09:41;;;;;;;;;;;;;;;20.58;70.28;95140.28;5096227;28;1095;-50
2022/06/06 00:12:07;;;;;;;;;;;;;;;20.72;70.19;95151.03;5096566;28;1031;-50
2022/06/06 00:14:34;;;;;;;;;;;;;;;20.70;70.68;95144.97;5096493;28;1040;-50
2022/06/06 00:17:00;;;;;;;;;;;;;;;20.67;71.15;95129.97;5096383;28;995;-50
2022/06/06 00:19:26;;;;;;;;;;;;;;;20.49;71.22;95117.19;5095979;28;1325;-50
2022/06/06 00:21:52;;;;;;;;;;;;;;;20.29;71.58;95109.19;5096498;28;1038;-50
2022/06/06 00:24:18;;;;;;;;;;;;;;;20.26;71.99;95105.06;5095788;28;1902;-50
2022/06/06 00:26:44;;;;;;;;;;;;;;;20.33;71.56;95099.56;5096197;28;1044;-50
2022/06/06 00:29:13;;;;;;;;;;;;;;;20.55;70.22;95101.88;5096012;28;1083;-50
2022/06/06 00:37:10;;;;;;;;;;;;;;;20.74;72.50;95065.53;5095880;28;1849;-50
2022/06/06 00:39:36;;;;;;;;;;;;;;;20.67;72.68;95081.91;5095659;28;1290;-50
2022/06/06 00:42:10;;;;;;;;;;;;;;;20.62;73.25;95070.91;5095988;28;1906;-50
2022/06/06 00:44:36;;;;;;;;;;;;;;;20.41;74.68;95083.00;5095876;28;1037;-50
2022/06/06 00:47:08;;;;;;;;;;;;;;;20.33;75.86;95085.16;5096018;28;996;-50
2022/06/06 00:49:37;;;;;;;;;;;;;;;20.19;76.38;95084.47;5095462;28;1105;-51
2022/06/06 00:52:05;;;;;;;;;;;;;;;20.16;76.54;95082.19;5095654;28;1029;-50
2022/06/06 00:54:31;;;;;;;;;;;;;;;20.00;77.03;95097.97;5095652;28;1069;-50
2022/06/06 00:57:02;;;;;;;;;;;;;;;19.94;77.75;95098.84;5095374;28;992;-50
2022/06/06 00:59:30;;;;;;;;;;;;;;;19.86;79.09;95099.97;5095488;28;1076;-50
2022/06/06 01:01:57;;;;;;;;;;;;;;;19.86;78.97;95128.94;5095610;28;1019;-50
2022/06/06 01:04:25;;;;;;;;;;;;;;;19.99;77.80;95188.56;5095606;28;1914;-50
2022/06/06 01:06:51;;;;;;;;;;;;;;;19.88;79.46;95217.22;5111216;28;1157;-50
2022/06/06 01:09:20;;;;;;;;;;;;;;;19.87;78.84;95241.88;5115123;28;973;-50
2022/06/06 01:11:50;;;;;;;;;;;;;;;19.92;79.30;95241.19;5115901;27;1037;-50
2022/06/06 01:14:18;;;;;;;;;;;;;;;19.92;79.64;95257.47;5115913;28;957;-51
2022/06/06 01:17:11;;;;;;;;;;;;;;;19.91;79.48;95261.25;5115460;28;965;-50
2022/06/06 01:19:56;;;;;;;;;;;;;;;19.86;80.23;95253.75;5084420;28;1216;-50
2022/06/06 01:22:37;;;;;;;;;;;;;;;19.76;81.77;95253.41;5115035;28;1897;-50
2022/06/06 01:25:24;;;;;;;;;;;;;;;19.65;81.26;95225.03;5115248;28;1103;-50
2022/06/06 01:27:56;;;;;;;;;;;;;;;19.59;80.99;95210.44;5115720;28;1015;-51
2022/06/06 01:30:23;;;;;;;;;;;;;;;19.39;82.84;95204.28;5115046;28;1051;-51
2022/06/06 01:32:52;;;;;;;;;;;;;;;19.19;85.98;95197.06;5115538;28;1049;-50
2022/06/06 01:35:35;;;;;;;;;;;;;;;19.20;86.23;95196.03;5115415;28;1153;-50
2022/06/06 01:38:02;;;;;;;;;;;;;;;19.49;84.74;95182.97;5115239;28;1031;-50
2022/06/06 01:40:51;;;;;;;;;;;;;;;19.77;82.07;95176.38;5114903;28;1032;-50
2022/06/06 01:43:19;;;;;;;;;;;;;;;19.98;81.70;95177.94;5104444;28;1913;-50
2022/06/06 01:45:48;;;;;;;;;;;;;;;19.96;82.83;95172.72;5114785;28;1186;-50
2022/06/06 01:48:17;;;;;;;;;;;;;;;19.92;84.59;95173.38;5114867;28;1211;-51
2022/06/06 01:50:43;;;;;;;;;;;;;;;19.80;85.11;95165.09;5114722;27;1091;-50
2022/06/06 01:53:14;;;;;;;;;;;;;;;19.62;87.79;95190.22;5114757;28;1028;-50
2022/06/06 01:55:44;;;;;;;;;;;;;;;19.55;88.29;95220.06;5114834;28;1037;-50
2022/06/06 01:58:13;;;;;;;;;;;;;;;19.73;86.93;95226.69;5115015;28;1053;-50
2022/06/06 02:00:40;;;;;;;;;;;;;;;19.76;87.42;95246.09;5114676;28;1028;-50
2022/06/06 02:03:08;;;;;;;;;;;;;;;19.88;86.53;95257.94;5114728;28;1909;-50
2022/06/06 02:05:34;;;;;;;;;;;;;;;19.91;85.51;95245.81;5109826;28;1216;-50
2022/06/06 02:08:00;;;;;;;;;;;;;;;19.97;86.06;95242.22;5093836;28;1029;-50
2022/06/06 02:10:26;;;;;;;;;;;;;;;20.04;84.99;95243.00;5094388;28;1084;-50
2022/06/06 02:12:52;;;;;;;;;;;;;;;19.95;86.45;95252.47;5094271;28;1039;-50
2022/06/06 02:15:19;;;;;;;;;;;;;;;20.02;85.42;95241.56;5094285;28;1036;-50
2022/06/06 02:17:46;;;;;;;;;;;;;;;20.13;84.14;95208.31;5093807;28;1863;-50
2022/06/06 02:20:13;;;;;;;;;;;;;;;19.98;85.39;95165.19;5093471;28;1027;-50
2022/06/06 02:22:39;;;;;;;;;;;;;;;19.59;87.31;95142.66;5093498;28;1902;-50
2022/06/06 02:25:06;;;;;;;;;;;;;;;19.53;87.75;95151.66;5093753;28;1036;-50
2022/06/06 02:27:33;;;;;;;;;;;;;;;19.67;86.37;95150.56;5093647;28;1028;-50
2022/06/06 02:29:59;;;;;;;;;;;;;;;19.93;84.48;95142.47;5093836;28;1024;-50
2022/06/06 02:32:25;;;;;;;;;;;;;;;20.06;83.35;95143.22;5093838;28;1006;-49
2022/06/06 02:34:51;;;;;;;;;;;;;;;20.08;84.15;95151.97;5093727;28;1032;-50
2022/06/06 02:37:17;;;;;;;;;;;;;;;20.15;83.25;95149.22;5093396;28;1027;-49
2022/06/06 02:39:43;;;;;;;;;;;;;;;20.00;85.45;95146.81;5093772;28;974;-50
2022/06/06 02:42:10;;;;;;;;;;;;;;;20.05;83.68;95148.84;5093440;28;1906;-50
2022/06/06 02:44:36;;;;;;;;;;;;;;;20.08;84.32;95154.66;5093710;28;1030;-50
2022/06/06 02:47:03;;;;;;;;;;;;;;;20.10;84.48;95140.88;5093764;28;958;-50
2022/06/06 02:49:30;;;;;;;;;;;;;;;20.07;85.20;95142.16;5093303;28;1093;-50
2022/06/06 02:51:56;;;;;;;;;;;;;;;19.89;86.76;95145.63;5093205;28;1025;-50
2022/06/06 02:54:23;;;;;;;;;;;;;;;19.88;86.82;95148.56;5093205;28;1052;-50
2022/06/06 02:56:49;;;;;;;;;;;;;;;19.83;87.26;95143.78;5093308;28;1071;-49
2022/06/06 02:59:16;;;;;;;;;;;;;;;19.99;85.16;95147.84;5093747;28;988;-50
2022/06/06 03:01:42;;;;;;;;;;;;;;;20.11;84.68;95156.13;5093187;28;1121;-50
2022/06/06 03:04:08;;;;;;;;;;;;;;;20.09;85.90;95160.94;5093304;28;1989;-50
2022/06/06 03:06:40;;;;;;;;;;;;;;;19.97;86.65;95159.97;5106335;28;1219;-50
2022/06/06 03:09:28;;;;;;;;;;;;;;;19.79;87.53;95163.44;5113623;28;1012;-50
2022/06/06 03:12:12;;;;;;;;;;;;;;;19.57;89.54;95165.63;5113921;28;973;-50
2022/06/06 03:14:44;;;;;;;;;;;;;;;19.62;88.95;95163.09;5113825;28;1056;-50
2022/06/06 03:23:04;;;;;;;;;;;;;;;19.51;91.16;95175.47;5113360;28;1977;-50
2022/06/06 03:26:05;;;;;;;;;;;;;;;19.61;89.84;95172.28;5113514;28;988;-50
2022/06/06 03:28:31;;;;;;;;;;;;;;;19.59;90.56;95175.19;5030379;28;1285;-50
2022/06/06 03:31:16;;;;;;;;;;;;;;;19.56;90.41;95162.09;5097532;28;998;-50
2022/06/06 03:33:45;;;;;;;;;;;;;;;19.52;90.36;95169.00;5117543;28;1003;-50
2022/06/06 03:36:23;;;;;;;;;;;;;;;19.46;90.57;95175.25;5117648;28;1036;-50
2022/06/06 03:39:06;;;;;;;;;;;;;;;19.49;91.65;95164.00;5117317;28;1047;-50
2022/06/06 03:41:32;;;;;;;;;;;;;;;19.52;91.95;95169.00;5117761;28;973;-50
2022/06/06 03:44:04;;;;;;;;;;;;;;;19.57;91.23;95147.47;5117434;28;1894;-49
2022/06/06 03:46:30;;;;;;;;;;;;;;;19.64;91.01;95156.41;5117549;28;1020;-50
2022/06/06 03:49:01;;;;;;;;;;;;;;;19.66;91.96;95153.47;5117082;28;1238;-50
2022/06/06 03:51:30;;;;;;;;;;;;;;;19.73;91.06;95153.44;5117125;28;909;-49
2022/06/06 03:54:13;;;;;;;;;;;;;;;19.82;90.28;95147.53;5117153;28;1067;-50
2022/06/06 03:56:52;;;;;;;;;;;;;;;19.84;90.84;95153.63;5117308;28;1032;-50
2022/06/06 03:59:19;;;;;;;;;;;;;;;19.85;90.92;95155.25;5117331;28;993;-50
2022/06/06 04:01:46;;;;;;;;;;;;;;;19.91;90.96;95155.44;5117370;28;909;-49
2022/06/06 04:04:13;;;;;;;;;;;;;;;19.97;90.27;95158.09;5116759;28;2013;-50
2022/06/06 04:09:55;;;;;;;;;;;;;;;19.91;90.41;95155.44;5075896;28;1035;-50
2022/06/06 04:12:27;;;;;;;;;;;;;;;19.66;92.45;95156.19;5076332;28;1012;-50
2022/06/06 04:15:14;;;;;;;;;;;;;;;19.57;93.21;95155.59;5075932;28;1965;-50
2022/06/06 04:17:56;;;;;;;;;;;;;;;19.70;93.53;95155.53;5075950;28;1048;-49
2022/06/06 04:20:26;;;;;;;;;;;;;;;19.66;93.03;95151.59;5076012;28;1129;-49
2022/06/06 04:22:52;;;;;;;;;;;;;;;19.54;92.77;95149.78;5076053;28;1993;-50
2022/06/06 04:25:24;;;;;;;;;;;;;;;19.56;93.30;95145.81;5075813;28;954;-50
2022/06/06 04:27:50;;;;;;;;;;;;;;;19.63;93.21;95153.91;5076142;28;957;-50
2022/06/06 04:30:20;;;;;;;;;;;;;;;19.83;92.07;95156.53;5075527;28;1092;-50
2022/06/06 04:32:46;;;;;;;;;;;;;;;19.92;92.70;95163.38;5075953;28;1056;-49
2022/06/06 04:35:26;;;;;;;;;;;;;;;20.10;91.46;95176.16;5075803;28;945;-50
2022/06/06 04:37:52;;;;;;;;;;;;;;;20.13;92.72;95170.31;5075843;28;968;-49
2022/06/06 04:40:18;;;;;;;;;;;;;;;20.21;91.94;95167.31;5075760;28;962;-50
2022/06/06 04:42:50;;;;;;;;;;;;;;;20.29;91.66;95171.63;5074423;28;1995;-50
2022/06/06 04:45:22;;;;;;;;;;;;;;;20.36;91.36;95175.13;5075384;28;1084;-49
2022/06/06 04:47:49;;;;;;;;;;;;;;;20.43;90.90;95180.50;5075570;28;1079;-50
2022/06/06 04:50:17;;;;;;;;;;;;;;;20.38;89.55;95183.91;5075308;28;1093;-50
2022/06/06 04:52:47;;;;;;;;;;;;;;;20.43;91.06;95188.66;5075304;28;1028;-50
2022/06/06 04:55:14;;;;;;;;;;;;;;;20.48;90.97;95186.09;5075234;28;964;-50
2022/06/06 04:57:42;;;;;;;;;;;;;;;20.39;91.98;95185.53;5075579;28;965;-50
2022/06/06 05:00:08;;;;;;;;;;;;;;;20.44;91.17;95188.44;5075376;28;988;-49
2022/06/06 05:02:35;;;;;;;;;;;;;;;20.61;90.07;95191.44;5075237;28;1988;-50
2022/06/06 05:05:01;;;;;;;;;;;;;;;20.93;87.85;95187.81;5075867;28;1153;-50
2022/06/06 05:07:34;;;;;;;;;;;;;;;21.07;87.62;95197.47;5115671;28;1003;-50
2022/06/06 05:10:03;;;;;;;;;;;;;;;21.10;86.30;95199.75;5115572;28;968;-50
2022/06/06 05:12:47;;;;;;;;;;;;;;;21.22;85.67;95197.94;5115907;28;1047;-50
2022/06/06 05:15:13;;;;;;;;;;;;;;;21.18;86.11;95194.00;5115618;28;1011;-50
2022/06/06 05:17:46;;;;;;;;;;;;;;;21.02;86.01;95186.47;5115607;28;1072;-50
2022/06/06 05:20:12;;;;;;;;;;;;;;;21.53;84.67;95185.28;5115388;28;1028;-50
2022/06/06 05:22:53;;;;;;;;;;;;;;;21.70;84.02;95184.63;5115284;28;1913;-50
2022/06/06 05:25:19;;;;;;;;;;;;;;;21.79;83.65;95186.78;5115316;28;1011;-50
2022/06/06 05:27:54;;;;;;;;;;;;;;;22.03;83.97;95185.00;5115442;28;973;-50
2022/06/06 05:30:31;;;;;;;;;;;;;;;22.25;81.64;95191.81;5115184;28;1844;-50
2022/06/06 05:33:00;;;;;;;;;;;;;;;22.51;80.57;95193.31;5115232;28;1087;-49
2022/06/06 05:35:29;;;;;;;;;;;;;;;22.63;79.49;95194.13;5115230;28;1024;-50
2022/06/06 05:38:13;;;;;;;;;;;;;;;22.76;80.55;95188.47;5115330;28;1036;-50
2022/06/06 05:40:43;;;;;;;;;;;;;;;22.75;79.37;95191.44;5115000;28;965;-50
2022/06/06 05:43:09;;;;;;;;;;;;;;;22.78;79.13;95191.81;5115056;28;1996;-50
2022/06/06 05:45:35;;;;;;;;;;;;;;;22.96;79.96;95195.47;5114764;28;1103;-50
2022/06/06 05:48:04;;;;;;;;;;;;;;;22.88;76.92;95206.72;5114948;28;1092;-50
2022/06/06 05:50:45;;;;;;;;;;;;;;;22.80;78.54;95210.63;5114571;28;1270;-50
2022/06/06 05:53:19;;;;;;;;;;;;;;;22.71;78.81;95209.31;5114917;28;1087;-50
2022/06/06 05:56:03;;;;;;;;;;;;;;;22.95;76.62;95207.44;5114302;28;963;-50
2022/06/06 05:58:39;;;;;;;;;;;;;;;23.13;78.25;95217.44;5114715;28;1080;-50
2022/06/06 06:01:23;;;;;;;;;;;;;;;22.87;77.48;95226.88;5114886;28;957;-50
2022/06/06 06:04:02;;;;;;;;;;;;;;;22.88;77.78;95217.63;5114918;28;1995;-50
2022/06/06 06:06:37;;;;;;;;;;;;;;;22.79;77.69;95226.16;5102085;28;1220;-51
2022/06/06 06:09:11;;;;;;;;;;;;;;;22.94;77.44;95220.25;5094431;28;991;-50
2022/06/06 06:12:00;;;;;;;;;;;;;;;23.15;76.48;95218.84;5094010;28;1071;-50
2022/06/06 06:14:47;;;;;;;;;;;;;;;23.16;77.55;95223.25;5065461;28;1177;-51
2022/06/06 06:17:16;;;;;;;;;;;;;;;23.44;76.36;95224.38;5094250;28;1003;-51
2022/06/06 06:19:45;;;;;;;;;;;;;;;23.67;75.40;95226.22;5093961;28;1020;-51
2022/06/06 06:22:12;;;;;;;;;;;;;;;23.77;75.83;95214.69;5093861;28;987;-51
2022/06/06 06:24:40;;;;;;;;;;;;;;;23.71;76.67;95204.72;5093695;28;1099;-50
2022/06/06 06:27:06;;;;;;;;;;;;;;;23.66;77.58;95199.19;5093721;28;1079;-50
2022/06/06 06:29:32;;;;;;;;;;;;;;;23.57;78.02;95193.28;5094065;28;1033;-51
2022/06/06 06:32:01;;;;;;;;;;;;;;;23.58;77.91;95193.03;5093941;28;1055;-51
2022/06/06 06:34:45;;;;;;;;;;;;;;;23.56;74.28;95192.44;5093867;28;1283;-51
2022/06/06 06:37:22;;;;;;;;;;;;;;;23.77;76.56;95184.66;5093916;28;1055;-51
2022/06/06 06:40:02;;;;;;;;;;;;;;;24.25;74.54;95194.34;5093712;28;1044;-50
2022/06/06 06:42:40;;;;;;;;;;;;;;;24.75;72.47;95193.56;5093726;28;1971;-50
2022/06/06 06:45:08;;;;;;;;;;;;;;;24.74;72.83;95188.34;5093958;28;1079;-50
2022/06/06 06:47:34;;;;;;;;;;;;;;;25.05;72.06;95186.09;5093694;28;991;-51
2022/06/06 06:50:19;;;;;;;;;;;;;;;25.17;73.01;95169.56;5092263;28;1852;-51
2022/06/06 06:53:04;;;;;;;;;;;;;;;25.09;69.90;95176.28;5093432;28;1028;-51
2022/06/06 06:55:36;;;;;;;;;;;;;;;24.79;69.76;95179.41;5093464;28;969;-51
2022/06/06 06:58:31;;;;;;;;;;;;;;;24.54;69.96;95169.72;5093483;28;968;-51
2022/06/06 07:01:00;;;;;;;;;;;;;;;24.49;72.22;95161.38;5092425;28;997;-51
2022/06/06 07:09:28;;;;;;;;;;;;;;;24.51;72.39;95154.66;5114086;28;1087;-51
2022/06/06 07:12:13;;;;;;;;;;;;;;;24.72;71.63;95150.31;5113492;28;1064;-51
2022/06/06 07:14:57;;;;;;;;;;;;;;;24.88;70.36;95147.81;5113850;28;1035;-51
2022/06/06 07:17:24;;;;;;;;;;;;;;;25.24;71.44;95145.63;5113332;28;1232;-51
2022/06/06 07:19:53;;;;;;;;;;;;;;;25.20;70.43;95138.97;5113869;28;957;-51
2022/06/06 07:22:21;;;;;;;;;;;;;;;25.65;72.18;95140.63;5113232;28;1902;-51
2022/06/06 07:24:52;;;;;;;;;;;;;;;25.52;68.27;95139.94;5113511;28;1020;-52
2022/06/06 07:27:18;;;;;;;;;;;;;;;25.36;69.73;95140.00;5113567;28;972;-51
2022/06/06 07:29:44;;;;;;;;;;;;;;;25.11;71.09;95133.09;5113504;28;1020;-51
2022/06/06 07:32:10;;;;;;;;;;;;;;;25.22;70.19;95142.28;5113627;28;1035;-51
2022/06/06 07:34:45;;;;;;;;;;;;;;;25.19;69.67;95142.78;5113418;28;1032;-52
2022/06/06 07:37:49;;;;;;;;;;;;;;;25.14;69.71;95138.06;5113429;28;977;-51
2022/06/06 07:40:21;;;;;;;;;;;;;;;25.31;71.25;95143.53;5030496;28;1166;-51
2022/06/06 07:43:06;;;;;;;;;;;;;;;25.12;71.14;95141.06;5030405;28;1989;-51
2022/06/06 07:45:44;;;;;;;;;;;;;;;25.10;70.51;95145.94;5083212;28;1088;-52
2022/06/06 07:48:29;;;;;;;;;;;;;;;24.98;73.48;95145.22;5113038;28;1246;-52
2022/06/06 07:51:10;;;;;;;;;;;;;;;25.10;72.75;95147.88;5113324;28;1015;-50
2022/06/06 07:53:45;;;;;;;;;;;;;;;25.10;72.72;95143.22;5113152;28;1008;-51
2022/06/06 07:56:12;;;;;;;;;;;;;;;25.22;72.89;95139.53;5113399;28;1051;-51
2022/06/06 07:58:44;;;;;;;;;;;;;;;25.14;72.56;95143.53;5113311;28;1063;-51
2022/06/06 08:01:13;;;;;;;;;;;;;;;25.06;72.93;95146.69;5113188;28;1219;-51
2022/06/06 08:03:39;;;;;;;;;;;;;;;25.40;73.63;95149.38;5112889;28;1994;-51
2022/06/06 08:06:11;;;;;;;;;;;;;;;25.48;72.13;95135.25;5103962;28;1168;-51
2022/06/06 08:08:40;;;;;;;;;;;;;;;25.62;72.54;95138.41;5092799;28;1043;-50
2022/06/06 08:11:13;;;;;;;;;;;;;;;25.50;71.27;95130.34;5092751;28;1025;-51
2022/06/06 08:13:42;;;;;;;;;;;;;;;25.72;72.84;95127.56;5092489;28;1031;-51
2022/06/06 08:16:08;;;;;;;;;;;;;;;25.94;69.25;95127.56;5092737;28;1008;-51
2022/06/06 08:18:34;;;;;;;;;;;;;;;25.87;70.67;95127.72;5093803;28;1087;-51
2022/06/06 08:21:09;;;;;;;;;;;;;;;25.76;71.54;95125.16;5096429;28;1023;-51
2022/06/06 08:23:37;;;;;;;;;;;;;;;25.61;70.72;95126.66;5095854;28;1910;-51
2022/06/06 08:26:03;;;;;;;;;;;;;;;25.68;71.42;95129.16;5096422;28;979;-51
2022/06/06 08:28:30;;;;;;;;;;;;;;;25.82;71.93;95130.44;5095886;28;1031;-51
2022/06/06 08:30:56;;;;;;;;;;;;;;;26.10;69.80;95131.28;5096428;28;1043;-51
2022/06/06 08:33:22;;;;;;;;;;;;;;;26.43;70.14;95137.63;5096023;28;1011;-51
2022/06/06 08:36:10;;;;;;;;;;;;;;;26.64;68.81;95120.25;5095931;28;1032;-51
2022/06/06 08:38:52;;;;;;;;;;;;;;;26.70;68.30;95115.66;5095917;28;1051;-51
2022/06/06 08:41:28;;;;;;;;;;;;;;;26.89;68.73;95116.03;5096276;28;1036;-51
2022/06/06 08:44:01;;;;;;;;;;;;;;;27.16;67.59;95121.41;5095863;28;1997;-51
2022/06/06 08:46:28;;;;;;;;;;;;;;;27.14;63.92;95111.78;5095850;28;1029;-50
2022/06/06 08:49:10;;;;;;;;;;;;;;;27.24;65.36;95101.69;5095583;28;1123;-51
2022/06/06 08:51:42;;;;;;;;;;;;;;;27.36;65.99;95101.50;5095616;28;1016;-51
2022/06/06 08:54:20;;;;;;;;;;;;;;;27.31;65.87;95111.63;5095261;28;1029;-51
2022/06/06 08:56:56;;;;;;;;;;;;;;;27.42;65.48;95113.34;5095599;28;1029;-51
2022/06/06 08:59:35;;;;;;;;;;;;;;;27.46;64.73;95109.78;5095652;28;1013;-51
2022/06/06 09:02:01;;;;;;;;;;;;;;;27.34;62.91;95092.72;5095518;28;968;-51
2022/06/06 09:05:05;;;;;;;;;;;;;;;27.45;63.12;95105.38;5095252;28;1918;-51
2022/06/06 09:07:50;;;;;;;;;;;;;;;27.51;63.46;95091.66;5032674;28;1872;-51
2022/06/06 09:10:34;;;;;;;;;;;;;;;27.53;60.29;95092.25;5032802;28;1049;-51
2022/06/06 09:13:04;;;;;;;;;;;;;;;27.52;62.98;95082.34;5063370;28;1033;-52
2022/06/06 09:15:33;;;;;;;;;;;;;;;27.57;60.86;95087.84;5075103;28;986;-51
2022/06/06 09:18:08;;;;;;;;;;;;;;;27.53;59.38;95081.25;5075132;28;985;-51
2022/06/06 09:20:50;;;;;;;;;;;;;;;27.70;60.84;95079.09;5074728;28;1009;-51
2022/06/06 09:23:22;;;;;;;;;;;;;;;27.81;56.80;95077.19;5074902;28;1906;-51
2022/06/06 09:25:48;;;;;;;;;;;;;;;27.80;56.50;95059.88;5075024;28;1059;-51
2022/06/06 09:28:28;;;;;;;;;;;;;;;27.74;54.90;95065.66;5074893;28;1023;-51
2022/06/06 09:31:12;;;;;;;;;;;;;;;27.95;55.11;95067.38;5074507;28;1083;-51
2022/06/06 09:33:48;;;;;;;;;;;;;;;28.05;53.52;95055.56;5074771;28;1024;-51
2022/06/06 09:36:23;;;;;;;;;;;;;;;28.13;54.54;95062.44;5074542;28;1176;-51
2022/06/06 09:38:56;;;;;;;;;;;;;;;28.14;55.10;95059.41;5074454;28;1881;-52
2022/06/06 09:41:22;;;;;;;;;;;;;;;27.98;55.65;95052.25;5073377;28;1051;-51
2022/06/06 09:44:03;;;;;;;;;;;;;;;27.94;57.33;95053.91;5074132;28;1902;-51
2022/06/06 09:46:48;;;;;;;;;;;;;;;27.97;56.81;95048.69;5074668;28;1049;-51
2022/06/06 09:49:23;;;;;;;;;;;;;;;27.95;55.55;95044.56;5073888;28;1088;-52
2022/06/06 09:51:49;;;;;;;;;;;;;;;27.99;56.35;95051.16;5074365;28;977;-51
2022/06/06 10:00:19;;;;;;;;;;;;;;;28.51;57.11;95025.28;5074272;28;969;-51
2022/06/06 10:03:03;;;;;;;;;;;;;;;28.50;57.20;95023.66;5074228;28;1991;-51
2022/06/06 10:05:48;;;;;;;;;;;;;;;28.58;56.77;95017.63;5082046;28;1166;-51
2022/06/06 10:08:14;;;;;;;;;;;;;;;28.55;55.51;95001.69;5114696;28;976;-51
2022/06/06 10:10:46;;;;;;;;;;;;;;;28.77;56.35;94998.59;5114339;28;1025;-51
2022/06/06 10:13:21;;;;;;;;;;;;;;;28.89;52.83;94990.00;5114814;28;1024;-51
2022/06/06 10:16:06;;;;;;;;;;;;;;;28.76;55.50;94985.09;5114346;28;1874;-51
2022/06/06 10:18:32;;;;;;;;;;;;;;;28.90;57.42;94983.41;5114382;28;1855;-51
2022/06/06 10:21:21;;;;;;;;;;;;;;;28.82;53.18;94978.50;5114171;28;918;-51
2022/06/06 10:23:50;;;;;;;;;;;;;;;28.73;55.15;94989.25;5114334;28;1917;-51
2022/06/06 10:26:29;;;;;;;;;;;;;;;28.88;54.94;94993.06;5114558;28;941;-51
2022/06/06 10:29:11;;;;;;;;;;;;;;;28.79;52.37;94987.31;5114463;28;1000;-51
2022/06/06 10:31:47;;;;;;;;;;;;;;;29.08;54.14;94987.47;5114449;28;1048;-51
2022/06/06 10:34:16;;;;;;;;;;;;;;;28.80;53.12;94988.97;5114154;28;988;-51
2022/06/06 10:36:57;;;;;;;;;;;;;;;28.33;56.10;94979.16;5114030;28;1096;-51
2022/06/06 10:39:27;;;;;;;;;;;;;;;28.06;55.59;94983.03;5112922;28;1190;-51
2022/06/06 10:42:03;;;;;;;;;;;;;;;27.89;56.26;94975.06;5113337;28;1975;-51
2022/06/06 10:44:48;;;;;;;;;;;;;;;27.96;57.22;94972.03;5113722;28;1917;-51
2022/06/06 10:47:45;;;;;;;;;;;;;;;28.01;56.77;94963.78;5114012;28;1008;-51
2022/06/06 10:50:28;;;;;;;;;;;;;;;28.01;57.40;94963.78;5113642;28;1112;-51
2022/06/06 10:52:54;;;;;;;;;;;;;;;28.12;56.07;94959.94;5113966;28;1087;-51
2022/06/06 10:55:35;;;;;;;;;;;;;;;28.08;58.55;94961.59;5113736;28;1051;-51
2022/06/06 10:58:04;;;;;;;;;;;;;;;28.13;59.35;94977.22;5113982;28;1027;-51
2022/06/06 11:00:46;;;;;;;;;;;;;;;27.86;60.16;94986.56;5113845;28;1042;-50
2022/06/06 11:03:30;;;;;;;;;;;;;;;27.70;61.17;94988.47;5113883;28;1909;-51
2022/06/06 11:06:15;;;;;;;;;;;;;;;27.57;62.88;94986.25;5105802;28;1160;-51
2022/06/06 11:08:59;;;;;;;;;;;;;;;27.32;63.01;94968.66;5093478;28;1007;-51
2022/06/06 11:11:55;;;;;;;;;;;;;;;27.21;63.91;94964.19;5093291;28;1127;-51
2022/06/06 11:14:31;;;;;;;;;;;;;;;27.18;64.24;94956.50;5093597;28;951;-51
2022/06/06 11:16:57;;;;;;;;;;;;;;;27.30;63.34;94950.78;5093806;28;1071;-51
2022/06/06 11:19:43;;;;;;;;;;;;;;;27.55;61.14;94950.03;5093096;28;1090;-50
2022/06/06 11:22:12;;;;;;;;;;;;;;;27.99;59.42;94944.81;5093160;28;1235;-51
2022/06/06 11:24:51;;;;;;;;;;;;;;;28.36;56.64;94942.84;5093017;28;1898;-51
2022/06/06 11:27:20;;;;;;;;;;;;;;;28.60;58.19;94951.34;5093300;28;1081;-51
2022/06/06 11:29:49;;;;;;;;;;;;;;;28.62;57.61;94971.13;5093135;28;1059;-51
2022/06/06 11:32:26;;;;;;;;;;;;;;;28.45;56.08;94970.59;5093332;28;1062;-51
2022/06/06 11:35:12;;;;;;;;;;;;;;;28.05;58.38;94948.38;5092999;28;1012;-51
2022/06/06 11:37:43;;;;;;;;;;;;;;;27.39;63.08;94939.00;5093090;28;1071;-51
2022/06/06 11:40:16;;;;;;;;;;;;;;;26.73;66.07;94925.91;5092929;28;1095;-51
2022/06/06 11:42:45;;;;;;;;;;;;;;;26.25;69.51;94931.38;5092938;28;1909;-51
2022/06/06 11:45:17;;;;;;;;;;;;;;;25.56;71.87;94939.63;5093122;28;1208;-50
2022/06/06 11:47:49;;;;;;;;;;;;;;;25.20;73.09;94937.34;5093076;28;1047;-50
2022/06/06 11:50:27;;;;;;;;;;;;;;;24.75;75.68;94935.75;5081446;28;2696;-51
2022/06/06 11:52:56;;;;;;;;;;;;;;;24.67;81.48;94961.63;5094895;28;964;-51
2022/06/06 11:55:37;;;;;;;;;;;;;;;24.75;78.06;94984.97;5096396;28;1853;-51
2022/06/06 11:58:22;;;;;;;;;;;;;;;24.71;79.95;94992.00;5097026;28;980;-51
2022/06/06 12:01:06;;;;;;;;;;;;;;;24.80;82.96;94997.88;5096842;28;1044;-51
2022/06/06 12:03:42;;;;;;;;;;;;;;;24.70;84.29;95032.19;5096541;28;1906;-50
2022/06/06 12:06:07;;;;;;;;;;;;;;;24.58;86.17;95047.88;5105865;28;1145;-51
2022/06/06 12:08:40;;;;;;;;;;;;;;;24.53;79.86;95039.63;5117220;28;953;-51
2022/06/06 12:11:06;;;;;;;;;;;;;;;24.31;80.35;95020.41;5116675;28;1096;-51
2022/06/06 12:13:50;;;;;;;;;;;;;;;23.86;74.56;95026.78;5116925;28;960;-51
2022/06/06 12:16:29;;;;;;;;;;;;;;;23.39;76.82;95019.66;5116679;28;1068;-51
2022/06/06 12:19:05;;;;;;;;;;;;;;;23.02;80.25;95038.28;5117134;28;1043;-51
2022/06/06 12:21:31;;;;;;;;;;;;;;;22.78;77.00;95050.06;5116750;27;1045;-50
2022/06/06 12:24:10;;;;;;;;;;;;;;;22.58;78.72;95052.34;5116550;28;2007;-50
2022/06/06 12:26:39;;;;;;;;;;;;;;;22.58;79.40;95060.53;5116738;28;1041;-50
2022/06/06 12:29:14;;;;;;;;;;;;;;;22.64;78.84;95061.47;5116569;28;1036;-50
2022/06/06 12:31:59;;;;;;;;;;;;;;;22.81;77.50;95071.38;5116540;28;965;-51
2022/06/06 12:34:28;;;;;;;;;;;;;;;23.03;77.60;95084.44;5116420;28;1075;-50
2022/06/06 12:36:57;;;;;;;;;;;;;;;22.93;79.48;95101.34;5116343;28;1011;-51
2022/06/06 12:39:42;;;;;;;;;;;;;;;23.04;79.41;95102.44;5116503;28;1027;-51
2022/06/06 12:42:08;;;;;;;;;;;;;;;23.09;77.88;95108.00;5116352;28;1031;-50
2022/06/06 12:44:34;;;;;;;;;;;;;;;22.93;81.63;95125.06;5116444;28;1909;-51
2022/06/06 12:47:23;;;;;;;;;;;;;;;23.00;84.40;95148.41;5116037;28;1033;-50
2022/06/06 12:49:49;;;;;;;;;;;;;;;23.34;82.97;95159.53;5078052;28;1174;-51
2022/06/06 12:52:28;;;;;;;;;;;;;;;23.58;83.15;95146.66;5115917;28;1092;-50
2022/06/06 12:57:41;;;;;;;;;;;;;;;23.73;80.47;95112.50;5115858;28;952;-51
2022/06/06 13:00:12;;;;;;;;;;;;;;;23.95;77.27;95120.88;5115929;28;969;-49
2022/06/06 13:02:44;;;;;;;;;;;;;;;24.41;77.38;95120.81;5115989;28;1909;-50
2022/06/06 13:05:16;;;;;;;;;;;;;;;24.70;73.80;95124.28;5113574;28;1168;-50
2022/06/06 13:07:42;;;;;;;;;;;;;;;24.62;72.72;95128.28;5095375;28;1023;-51
2022/06/06 13:10:27;;;;;;;;;;;;;;;24.60;74.33;95149.56;5094252;28;1044;-51
2022/06/06 13:13:05;;;;;;;;;;;;;;;24.43;73.09;95163.19;5095182;28;1019;-51
2022/06/06 13:15:34;;;;;;;;;;;;;;;24.17;75.01;95165.50;5095446;28;1051;-51
2022/06/06 13:18:19;;;;;;;;;;;;;;;23.92;75.35;95138.59;5095095;28;1016;-51
2022/06/06 13:20:51;;;;;;;;;;;;;;;23.75;72.76;95134.94;5094979;28;1032;-50
2022/06/06 13:23:21;;;;;;;;;;;;;;;23.39;77.76;95142.41;5094784;28;1909;-50
2022/06/06 13:25:54;;;;;;;;;;;;;;;23.42;81.35;95127.47;5095136;28;1179;-51
2022/06/06 13:28:31;;;;;;;;;;;;;;;23.46;80.46;95104.91;5095338;28;996;-51
2022/06/06 13:31:15;;;;;;;;;;;;;;;23.49;79.53;95103.63;5095347;28;1080;-51
2022/06/06 13:33:54;;;;;;;;;;;;;;;23.40;79.45;95086.78;5094541;28;1857;-51
2022/06/06 13:36:38;;;;;;;;;;;;;;;23.08;83.28;95054.53;5095086;28;1072;-51
2022/06/06 13:39:25;;;;;;;;;;;;;;;22.79;82.63;95013.56;5094765;28;1036;-50
2022/06/06 13:41:53;;;;;;;;;;;;;;;22.70;82.26;95012.28;5095051;28;1016;-51
2022/06/06 13:44:58;;;;;;;;;;;;;;;22.53;82.06;95025.00;5094617;28;1902;-51
2022/06/06 13:47:42;;;;;;;;;;;;;;;22.53;87.31;95085.75;5032014;28;1285;-51
2022/06/06 13:50:17;;;;;;;;;;;;;;;22.80;86.25;95124.25;5032061;28;1145;-51
2022/06/06 13:53:02;;;;;;;;;;;;;;;22.93;85.16;95144.13;5072945;28;1109;-51
2022/06/06 13:55:30;;;;;;;;;;;;;;;22.99;87.36;95173.16;5094309;28;1090;-51
2022/06/06 13:58:15;;;;;;;;;;;;;;;23.09;86.56;95208.06;5094605;28;1023;-51
2022/06/06 14:00:50;;;;;;;;;;;;;;;23.13;86.13;95237.34;5094226;28;1020;-51